Ivanhoe, Minnesota
Current Conditions -  °F | °C
As of 7:33 AM on Friday 19 Dec 2014 (Local Time) from KCNB Reporting Station
Overcast Overcast  
Wind Chill: 24°   Ceiling: 1000
Heat Index: 29°   Visibility: 7mi
Dew Point: 27°   Wind: 5mph
Humidity: 92%   Direction: 210°SSW
Pressure: 30.15"   Gusts: NA
Location:  44.46°N, 96.25°W
Report Text: KCNB 191333Z AUTO 21004KT 7SM OVC010 M01/M03 A3015 RMK AO2 T10151027
Loading
Personal Weather Stations






























Interactive Weather Map New forecast layout! Learn more

10-Day Weather Forecast

Advertisements
Track Severe Weather on mobile